sensor_id;sensor_type;location;lat;lon;timestamp;P1;durP1;ratioP1;P2;durP2;ratioP2
75167;SDS011;63748;48.088;11.476;2023-03-01T00:01:01;5.55;;;3.47;;
75167;SDS011;63748;48.088;11.476;2023-03-01T00:03:27;13.10;;;7.03;;
75167;SDS011;63748;48.088;11.476;2023-03-01T00:05:53;15.20;;;6.45;;
75167;SDS011;63748;48.088;11.476;2023-03-01T00:08:19;12.48;;;7.57;;
75167;SDS011;63748;48.088;11.476;2023-03-01T00:10:45;17.38;;;8.75;;
75167;SDS011;63748;48.088;11.476;2023-03-01T00:13:11;13.00;;;6.45;;
75167;SDS011;63748;48.088;11.476;2023-03-01T00:15:38;16.48;;;7.60;;
75167;SDS011;63748;48.088;11.476;2023-03-01T00:18:05;10.57;;;5.85;;
75167;SDS011;63748;48.088;11.476;2023-03-01T00:20:31;8.27;;;3.85;;
75167;SDS011;63748;48.088;11.476;2023-03-01T00:22:57;16.02;;;7.13;;
75167;SDS011;63748;48.088;11.476;2023-03-01T00:25:23;15.30;;;7.45;;
75167;SDS011;63748;48.088;11.476;2023-03-01T00:27:49;9.23;;;5.85;;
75167;SDS011;63748;48.088;11.476;2023-03-01T00:30:15;17.77;;;7.93;;
75167;SDS011;63748;48.088;11.476;2023-03-01T00:32:41;14.00;;;6.57;;
75167;SDS011;63748;48.088;11.476;2023-03-01T00:35:08;15.45;;;7.18;;
75167;SDS011;63748;48.088;11.476;2023-03-01T00:37:34;17.00;;;8.40;;
75167;SDS011;63748;48.088;11.476;2023-03-01T00:40:00;16.05;;;7.65;;
75167;SDS011;63748;48.088;11.476;2023-03-01T00:42:26;18.17;;;7.45;;
75167;SDS011;63748;48.088;11.476;2023-03-01T00:44:52;16.00;;;8.30;;
75167;SDS011;63748;48.088;11.476;2023-03-01T00:47:18;17.83;;;8.68;;
75167;SDS011;63748;48.088;11.476;2023-03-01T00:49:44;14.27;;;7.05;;
75167;SDS011;63748;48.088;11.476;2023-03-01T00:52:10;8.32;;;5.13;;
75167;SDS011;63748;48.088;11.476;2023-03-01T00:54:36;16.02;;;6.30;;
75167;SDS011;63748;48.088;11.476;2023-03-01T00:57:02;12.82;;;7.10;;
75167;SDS011;63748;48.088;11.476;2023-03-01T00:59:28;7.88;;;3.90;;
75167;SDS011;63748;48.088;11.476;2023-03-01T01:01:54;16.10;;;7.93;;
75167;SDS011;63748;48.088;11.476;2023-03-01T01:04:20;12.10;;;7.18;;
75167;SDS011;63748;48.088;11.476;2023-03-01T01:06:47;10.05;;;5.30;;
75167;SDS011;63748;48.088;11.476;2023-03-01T01:09:14;13.90;;;7.53;;
75167;SDS011;63748;48.088;11.476;2023-03-01T01:11:45;11.13;;;6.15;;
75167;SDS011;63748;48.088;11.476;2023-03-01T01:14:11;14.70;;;6.90;;
75167;SDS011;63748;48.088;11.476;2023-03-01T01:16:38;13.90;;;7.63;;
75167;SDS011;63748;48.088;11.476;2023-03-01T01:19:04;13.77;;;7.43;;
75167;SDS011;63748;48.088;11.476;2023-03-01T01:21:30;11.30;;;5.65;;
75167;SDS011;63748;48.088;11.476;2023-03-01T01:23:57;13.35;;;6.72;;
75167;SDS011;63748;48.088;11.476;2023-03-01T01:26:28;7.97;;;5.03;;
75167;SDS011;63748;48.088;11.476;2023-03-01T01:28:54;13.35;;;6.60;;
75167;SDS011;63748;48.088;11.476;2023-03-01T01:31:21;13.98;;;7.60;;
75167;SDS011;63748;48.088;11.476;2023-03-01T01:33:51;15.95;;;7.40;;
75167;SDS011;63748;48.088;11.476;2023-03-01T01:36:18;17.08;;;7.97;;
75167;SDS011;63748;48.088;11.476;2023-03-01T01:38:44;14.18;;;7.22;;
75167;SDS011;63748;48.088;11.476;2023-03-01T01:41:10;12.70;;;7.25;;
75167;SDS011;63748;48.088;11.476;2023-03-01T01:43:41;12.30;;;6.40;;
75167;SDS011;63748;48.088;11.476;2023-03-01T01:48:54;12.85;;;5.13;;
75167;SDS011;63748;48.088;11.476;2023-03-01T01:51:23;14.70;;;5.88;;
75167;SDS011;63748;48.088;11.476;2023-03-01T01:53:53;17.05;;;9.23;;
75167;SDS011;63748;48.088;11.476;2023-03-01T01:56:19;15.52;;;7.72;;
75167;SDS011;63748;48.088;11.476;2023-03-01T01:58:46;16.60;;;7.53;;
75167;SDS011;63748;48.088;11.476;2023-03-01T02:01:12;5.20;;;3.35;;
75167;SDS011;63748;48.088;11.476;2023-03-01T02:03:39;12.65;;;7.60;;
75167;SDS011;63748;48.088;11.476;2023-03-01T02:06:21;15.60;;;7.10;;
75167;SDS011;63748;48.088;11.476;2023-03-01T02:08:48;10.95;;;6.50;;
75167;SDS011;63748;48.088;11.476;2023-03-01T02:11:15;5.68;;;3.30;;
75167;SDS011;63748;48.088;11.476;2023-03-01T02:13:41;15.25;;;7.20;;
75167;SDS011;63748;48.088;11.476;2023-03-01T02:16:08;13.70;;;7.50;;
75167;SDS011;63748;48.088;11.476;2023-03-01T02:18:35;16.38;;;7.75;;
75167;SDS011;63748;48.088;11.476;2023-03-01T02:23:42;14.45;;;6.97;;
75167;SDS011;63748;48.088;11.476;2023-03-01T02:26:15;13.75;;;7.57;;
75167;SDS011;63748;48.088;11.476;2023-03-01T02:28:44;8.98;;;5.38;;
75167;SDS011;63748;48.088;11.476;2023-03-01T02:31:10;15.52;;;7.07;;
75167;SDS011;63748;48.088;11.476;2023-03-01T02:33:58;14.68;;;7.45;;
75167;SDS011;63748;48.088;11.476;2023-03-01T02:36:25;11.43;;;7.05;;
75167;SDS011;63748;48.088;11.476;2023-03-01T02:38:54;15.50;;;7.65;;
75167;SDS011;63748;48.088;11.476;2023-03-01T02:41:21;15.68;;;7.78;;
75167;SDS011;63748;48.088;11.476;2023-03-01T02:43:49;15.43;;;7.60;;
75167;SDS011;63748;48.088;11.476;2023-03-01T02:51:14;7.13;;;4.18;;
75167;SDS011;63748;48.088;11.476;2023-03-01T02:53:56;12.43;;;6.95;;
75167;SDS011;63748;48.088;11.476;2023-03-01T02:56:24;10.82;;;5.75;;
75167;SDS011;63748;48.088;11.476;2023-03-01T02:58:50;9.50;;;4.55;;
75167;SDS011;63748;48.088;11.476;2023-03-01T03:01:18;4.80;;;3.65;;
75167;SDS011;63748;48.088;11.476;2023-03-01T03:03:44;8.75;;;6.70;;
75167;SDS011;63748;48.088;11.476;2023-03-01T03:06:10;12.85;;;6.18;;
75167;SDS011;63748;48.088;11.476;2023-03-01T03:08:36;8.10;;;3.20;;
75167;SDS011;63748;48.088;11.476;2023-03-01T03:11:02;15.60;;;7.75;;
75167;SDS011;63748;48.088;11.476;2023-03-01T03:13:28;15.73;;;7.95;;
75167;SDS011;63748;48.088;11.476;2023-03-01T03:15:55;15.05;;;7.85;;
75167;SDS011;63748;48.088;11.476;2023-03-01T03:18:21;15.15;;;8.13;;
75167;SDS011;63748;48.088;11.476;2023-03-01T03:20:48;15.65;;;7.63;;
75167;SDS011;63748;48.088;11.476;2023-03-01T03:23:18;16.27;;;9.05;;
75167;SDS011;63748;48.088;11.476;2023-03-01T03:25:44;11.98;;;6.20;;
75167;SDS011;63748;48.088;11.476;2023-03-01T03:28:10;15.05;;;6.80;;
75167;SDS011;63748;48.088;11.476;2023-03-01T03:30:37;13.30;;;7.38;;
75167;SDS011;63748;48.088;11.476;2023-03-01T03:33:04;10.32;;;5.57;;
75167;SDS011;63748;48.088;11.476;2023-03-01T03:35:37;17.80;;;7.43;;
75167;SDS011;63748;48.088;11.476;2023-03-01T03:38:04;17.23;;;8.05;;
75167;SDS011;63748;48.088;11.476;2023-03-01T03:40:38;13.50;;;7.32;;
75167;SDS011;63748;48.088;11.476;2023-03-01T03:43:05;15.82;;;8.35;;
75167;SDS011;63748;48.088;11.476;2023-03-01T03:45:32;16.85;;;8.07;;
75167;SDS011;63748;48.088;11.476;2023-03-01T03:48:01;13.68;;;7.63;;
75167;SDS011;63748;48.088;11.476;2023-03-01T03:50:28;15.18;;;7.13;;
75167;SDS011;63748;48.088;11.476;2023-03-01T03:52:54;15.55;;;6.50;;
75167;SDS011;63748;48.088;11.476;2023-03-01T03:55:20;15.18;;;7.35;;
75167;SDS011;63748;48.088;11.476;2023-03-01T03:57:47;16.92;;;8.30;;
75167;SDS011;63748;48.088;11.476;2023-03-01T04:00:20;12.02;;;7.30;;
75167;SDS011;63748;48.088;11.476;2023-03-01T04:02:47;15.88;;;7.45;;
75167;SDS011;63748;48.088;11.476;2023-03-01T04:05:14;15.95;;;7.85;;
75167;SDS011;63748;48.088;11.476;2023-03-01T04:07:40;14.38;;;7.43;;
75167;SDS011;63748;48.088;11.476;2023-03-01T04:10:08;14.85;;;7.72;;
75167;SDS011;63748;48.088;11.476;2023-03-01T04:12:34;14.88;;;6.97;;
75167;SDS011;63748;48.088;11.476;2023-03-01T04:15:01;16.10;;;7.55;;
75167;SDS011;63748;48.088;11.476;2023-03-01T04:17:37;15.00;;;7.82;;
75167;SDS011;63748;48.088;11.476;2023-03-01T04:20:04;16.38;;;8.05;;
75167;SDS011;63748;48.088;11.476;2023-03-01T04:22:31;13.05;;;6.95;;
75167;SDS011;63748;48.088;11.476;2023-03-01T04:24:58;13.07;;;6.20;;
75167;SDS011;63748;48.088;11.476;2023-03-01T04:27:32;19.38;;;9.02;;
75167;SDS011;63748;48.088;11.476;2023-03-01T04:29:58;17.08;;;7.35;;
75167;SDS011;63748;48.088;11.476;2023-03-01T04:32:24;9.70;;;4.95;;
75167;SDS011;63748;48.088;11.476;2023-03-01T04:34:50;14.48;;;7.28;;
75167;SDS011;63748;48.088;11.476;2023-03-01T04:37:16;17.48;;;9.02;;
75167;SDS011;63748;48.088;11.476;2023-03-01T04:39:42;9.82;;;6.05;;
75167;SDS011;63748;48.088;11.476;2023-03-01T04:42:10;16.55;;;7.70;;
75167;SDS011;63748;48.088;11.476;2023-03-01T04:44:36;16.63;;;8.15;;
75167;SDS011;63748;48.088;11.476;2023-03-01T04:47:02;14.15;;;7.22;;
75167;SDS011;63748;48.088;11.476;2023-03-01T04:49:28;11.60;;;5.57;;
75167;SDS011;63748;48.088;11.476;2023-03-01T04:51:54;15.90;;;7.72;;
75167;SDS011;63748;48.088;11.476;2023-03-01T04:56:49;14.65;;;6.47;;
75167;SDS011;63748;48.088;11.476;2023-03-01T04:59:15;14.88;;;7.97;;
75167;SDS011;63748;48.088;11.476;2023-03-01T05:01:41;10.85;;;5.93;;
75167;SDS011;63748;48.088;11.476;2023-03-01T05:04:07;17.48;;;6.55;;
75167;SDS011;63748;48.088;11.476;2023-03-01T05:06:38;16.77;;;6.45;;
75167;SDS011;63748;48.088;11.476;2023-03-01T05:09:04;14.75;;;7.78;;
75167;SDS011;63748;48.088;11.476;2023-03-01T05:11:30;14.30;;;7.35;;
75167;SDS011;63748;48.088;11.476;2023-03-01T05:14:01;9.13;;;6.32;;
75167;SDS011;63748;48.088;11.476;2023-03-01T05:16:27;6.53;;;4.57;;
75167;SDS011;63748;48.088;11.476;2023-03-01T05:18:53;15.85;;;8.15;;
75167;SDS011;63748;48.088;11.476;2023-03-01T05:21:20;19.25;;;7.75;;
75167;SDS011;63748;48.088;11.476;2023-03-01T05:23:46;16.77;;;8.55;;
75167;SDS011;63748;48.088;11.476;2023-03-01T05:26:13;14.23;;;6.97;;
75167;SDS011;63748;48.088;11.476;2023-03-01T05:28:39;13.65;;;7.70;;
75167;SDS011;63748;48.088;11.476;2023-03-01T05:31:05;18.40;;;9.10;;
75167;SDS011;63748;48.088;11.476;2023-03-01T05:33:35;17.02;;;7.60;;
75167;SDS011;63748;48.088;11.476;2023-03-01T05:36:02;8.07;;;3.97;;
75167;SDS011;63748;48.088;11.476;2023-03-01T05:38:28;20.65;;;8.18;;
75167;SDS011;63748;48.088;11.476;2023-03-01T05:40:54;19.00;;;8.38;;
75167;SDS011;63748;48.088;11.476;2023-03-01T05:43:20;13.15;;;6.55;;
75167;SDS011;63748;48.088;11.476;2023-03-01T05:45:46;13.10;;;7.93;;
75167;SDS011;63748;48.088;11.476;2023-03-01T05:48:13;13.30;;;7.43;;
75167;SDS011;63748;48.088;11.476;2023-03-01T05:50:42;18.23;;;8.13;;
75167;SDS011;63748;48.088;11.476;2023-03-01T05:53:16;18.38;;;8.10;;
75167;SDS011;63748;48.088;11.476;2023-03-01T05:55:42;15.00;;;7.68;;
75167;SDS011;63748;48.088;11.476;2023-03-01T05:58:11;17.27;;;8.68;;
75167;SDS011;63748;48.088;11.476;2023-03-01T06:00:39;12.43;;;7.88;;
75167;SDS011;63748;48.088;11.476;2023-03-01T06:03:05;13.05;;;7.70;;
75167;SDS011;63748;48.088;11.476;2023-03-01T06:05:31;19.55;;;8.40;;
75167;SDS011;63748;48.088;11.476;2023-03-01T06:08:01;16.35;;;7.43;;
75167;SDS011;63748;48.088;11.476;2023-03-01T06:10:28;16.17;;;6.90;;
75167;SDS011;63748;48.088;11.476;2023-03-01T06:12:54;14.40;;;7.40;;
75167;SDS011;63748;48.088;11.476;2023-03-01T06:15:20;13.73;;;7.93;;
75167;SDS011;63748;48.088;11.476;2023-03-01T06:17:47;9.73;;;7.05;;
75167;SDS011;63748;48.088;11.476;2023-03-01T06:20:14;15.57;;;7.60;;
75167;SDS011;63748;48.088;11.476;2023-03-01T06:22:41;15.57;;;7.43;;
75167;SDS011;63748;48.088;11.476;2023-03-01T06:25:07;16.88;;;6.18;;
75167;SDS011;63748;48.088;11.476;2023-03-01T06:27:34;16.10;;;8.70;;
75167;SDS011;63748;48.088;11.476;2023-03-01T06:30:00;13.02;;;7.32;;
75167;SDS011;63748;48.088;11.476;2023-03-01T06:32:26;14.27;;;7.43;;
75167;SDS011;63748;48.088;11.476;2023-03-01T06:34:52;17.15;;;7.97;;
75167;SDS011;63748;48.088;11.476;2023-03-01T06:37:18;11.15;;;7.47;;
75167;SDS011;63748;48.088;11.476;2023-03-01T06:39:44;16.95;;;8.15;;
75167;SDS011;63748;48.088;11.476;2023-03-01T06:42:10;13.65;;;7.88;;
75167;SDS011;63748;48.088;11.476;2023-03-01T06:44:37;14.23;;;7.15;;
75167;SDS011;63748;48.088;11.476;2023-03-01T06:47:03;18.35;;;8.77;;
75167;SDS011;63748;48.088;11.476;2023-03-01T06:49:30;15.77;;;8.48;;
75167;SDS011;63748;48.088;11.476;2023-03-01T06:51:56;13.43;;;8.23;;
75167;SDS011;63748;48.088;11.476;2023-03-01T06:54:22;20.15;;;8.20;;
75167;SDS011;63748;48.088;11.476;2023-03-01T06:56:48;15.68;;;7.65;;
75167;SDS011;63748;48.088;11.476;2023-03-01T06:59:15;15.32;;;7.07;;
75167;SDS011;63748;48.088;11.476;2023-03-01T07:01:41;15.75;;;7.63;;
75167;SDS011;63748;48.088;11.476;2023-03-01T07:04:08;14.77;;;7.55;;
75167;SDS011;63748;48.088;11.476;2023-03-01T07:06:34;17.48;;;7.93;;
75167;SDS011;63748;48.088;11.476;2023-03-01T07:09:00;13.38;;;7.68;;
75167;SDS011;63748;48.088;11.476;2023-03-01T07:11:26;10.48;;;6.80;;
75167;SDS011;63748;48.088;11.476;2023-03-01T07:13:52;19.15;;;8.15;;
75167;SDS011;63748;48.088;11.476;2023-03-01T07:16:19;8.80;;;5.38;;
75167;SDS011;63748;48.088;11.476;2023-03-01T07:18:45;16.58;;;7.70;;
75167;SDS011;63748;48.088;11.476;2023-03-01T07:21:12;14.27;;;7.65;;
75167;SDS011;63748;48.088;11.476;2023-03-01T07:23:38;8.93;;;3.88;;
75167;SDS011;63748;48.088;11.476;2023-03-01T07:26:04;13.00;;;6.35;;
75167;SDS011;63748;48.088;11.476;2023-03-01T07:28:30;19.75;;;7.68;;
75167;SDS011;63748;48.088;11.476;2023-03-01T07:31:04;16.33;;;8.60;;
75167;SDS011;63748;48.088;11.476;2023-03-01T07:33:30;16.52;;;8.05;;
75167;SDS011;63748;48.088;11.476;2023-03-01T07:35:59;10.27;;;5.20;;
75167;SDS011;63748;48.088;11.476;2023-03-01T07:38:26;14.73;;;7.22;;
75167;SDS011;63748;48.088;11.476;2023-03-01T07:40:52;10.10;;;4.60;;
75167;SDS011;63748;48.088;11.476;2023-03-01T07:43:18;18.15;;;8.68;;
75167;SDS011;63748;48.088;11.476;2023-03-01T07:45:45;16.67;;;8.60;;
75167;SDS011;63748;48.088;11.476;2023-03-01T07:48:11;16.52;;;7.93;;
75167;SDS011;63748;48.088;11.476;2023-03-01T07:50:37;13.98;;;6.28;;
75167;SDS011;63748;48.088;11.476;2023-03-01T07:53:03;20.65;;;8.50;;
75167;SDS011;63748;48.088;11.476;2023-03-01T07:55:29;18.15;;;8.95;;
75167;SDS011;63748;48.088;11.476;2023-03-01T07:57:55;15.05;;;7.80;;
75167;SDS011;63748;48.088;11.476;2023-03-01T08:00:21;13.43;;;6.10;;
75167;SDS011;63748;48.088;11.476;2023-03-01T08:02:48;18.30;;;8.60;;
75167;SDS011;63748;48.088;11.476;2023-03-01T08:05:14;20.17;;;8.95;;
75167;SDS011;63748;48.088;11.476;2023-03-01T08:07:40;11.40;;;7.25;;
75167;SDS011;63748;48.088;11.476;2023-03-01T08:10:06;16.75;;;7.72;;
75167;SDS011;63748;48.088;11.476;2023-03-01T08:12:32;17.33;;;8.23;;
75167;SDS011;63748;48.088;11.476;2023-03-01T08:14:58;19.60;;;9.30;;
75167;SDS011;63748;48.088;11.476;2023-03-01T08:17:24;14.82;;;8.77;;
75167;SDS011;63748;48.088;11.476;2023-03-01T08:19:50;17.58;;;8.13;;
75167;SDS011;63748;48.088;11.476;2023-03-01T08:22:17;16.75;;;8.27;;
75167;SDS011;63748;48.088;11.476;2023-03-01T08:24:43;16.67;;;7.82;;
75167;SDS011;63748;48.088;11.476;2023-03-01T08:27:09;16.80;;;7.82;;
75167;SDS011;63748;48.088;11.476;2023-03-01T08:29:37;19.52;;;7.72;;
75167;SDS011;63748;48.088;11.476;2023-03-01T08:32:03;17.40;;;9.07;;
75167;SDS011;63748;48.088;11.476;2023-03-01T08:34:29;20.25;;;9.55;;
75167;SDS011;63748;48.088;11.476;2023-03-01T08:36:56;16.50;;;7.93;;
75167;SDS011;63748;48.088;11.476;2023-03-01T08:39:22;14.50;;;7.57;;
75167;SDS011;63748;48.088;11.476;2023-03-01T08:41:48;16.42;;;7.85;;
75167;SDS011;63748;48.088;11.476;2023-03-01T08:44:15;12.40;;;7.00;;
75167;SDS011;63748;48.088;11.476;2023-03-01T08:46:46;20.35;;;9.25;;
75167;SDS011;63748;48.088;11.476;2023-03-01T08:49:16;13.05;;;7.20;;
75167;SDS011;63748;48.088;11.476;2023-03-01T08:51:42;21.13;;;9.25;;
75167;SDS011;63748;48.088;11.476;2023-03-01T08:54:15;11.82;;;5.47;;
75167;SDS011;63748;48.088;11.476;2023-03-01T08:56:41;13.25;;;7.28;;
75167;SDS011;63748;48.088;11.476;2023-03-01T08:59:08;16.23;;;8.07;;
75167;SDS011;63748;48.088;11.476;2023-03-01T09:01:34;18.85;;;9.05;;
75167;SDS011;63748;48.088;11.476;2023-03-01T09:04:02;16.15;;;7.85;;
75167;SDS011;63748;48.088;11.476;2023-03-01T09:06:32;18.17;;;8.18;;
75167;SDS011;63748;48.088;11.476;2023-03-01T09:08:58;18.85;;;9.60;;
75167;SDS011;63748;48.088;11.476;2023-03-01T09:11:24;17.63;;;8.50;;
75167;SDS011;63748;48.088;11.476;2023-03-01T09:13:50;17.20;;;8.15;;
75167;SDS011;63748;48.088;11.476;2023-03-01T09:16:18;14.73;;;7.28;;
75167;SDS011;63748;48.088;11.476;2023-03-01T09:18:45;13.82;;;6.65;;
75167;SDS011;63748;48.088;11.476;2023-03-01T09:21:15;16.25;;;8.10;;
75167;SDS011;63748;48.088;11.476;2023-03-01T09:23:42;15.98;;;6.90;;
75167;SDS011;63748;48.088;11.476;2023-03-01T09:26:10;18.05;;;9.00;;
75167;SDS011;63748;48.088;11.476;2023-03-01T09:28:36;21.55;;;9.57;;
75167;SDS011;63748;48.088;11.476;2023-03-01T09:31:03;20.25;;;9.43;;
75167;SDS011;63748;48.088;11.476;2023-03-01T09:33:30;16.05;;;8.55;;
75167;SDS011;63748;48.088;11.476;2023-03-01T09:36:01;16.63;;;7.53;;
75167;SDS011;63748;48.088;11.476;2023-03-01T09:38:27;14.75;;;8.40;;
75167;SDS011;63748;48.088;11.476;2023-03-01T09:40:53;14.45;;;8.02;;
75167;SDS011;63748;48.088;11.476;2023-03-01T09:43:29;16.55;;;7.82;;
75167;SDS011;63748;48.088;11.476;2023-03-01T09:45:58;19.00;;;9.10;;
75167;SDS011;63748;48.088;11.476;2023-03-01T09:48:26;13.55;;;6.47;;
75167;SDS011;63748;48.088;11.476;2023-03-01T09:50:53;20.45;;;9.25;;
75167;SDS011;63748;48.088;11.476;2023-03-01T09:53:20;15.82;;;8.35;;
75167;SDS011;63748;48.088;11.476;2023-03-01T09:56:05;16.17;;;7.57;;
75167;SDS011;63748;48.088;11.476;2023-03-01T10:01:09;14.02;;;7.55;;
75167;SDS011;63748;48.088;11.476;2023-03-01T10:03:39;10.23;;;5.43;;
75167;SDS011;63748;48.088;11.476;2023-03-01T10:06:20;15.43;;;6.95;;
75167;SDS011;63748;48.088;11.476;2023-03-01T10:11:34;16.27;;;6.82;;
75167;SDS011;63748;48.088;11.476;2023-03-01T10:16:34;12.93;;;6.30;;
75167;SDS011;63748;48.088;11.476;2023-03-01T10:19:03;15.52;;;7.40;;
75167;SDS011;63748;48.088;11.476;2023-03-01T10:21:31;17.25;;;9.20;;
75167;SDS011;63748;48.088;11.476;2023-03-01T10:24:05;18.52;;;9.10;;
75167;SDS011;63748;48.088;11.476;2023-03-01T10:31:48;15.02;;;7.15;;
75167;SDS011;63748;48.088;11.476;2023-03-01T10:34:22;20.20;;;10.13;;
75167;SDS011;63748;48.088;11.476;2023-03-01T10:36:53;17.20;;;9.07;;
75167;SDS011;63748;48.088;11.476;2023-03-01T10:39:22;16.20;;;7.35;;
75167;SDS011;63748;48.088;11.476;2023-03-01T10:47:02;11.25;;;5.78;;
75167;SDS011;63748;48.088;11.476;2023-03-01T10:49:29;19.13;;;8.48;;
75167;SDS011;63748;48.088;11.476;2023-03-01T10:51:55;16.25;;;8.57;;
75167;SDS011;63748;48.088;11.476;2023-03-01T10:54:28;18.55;;;8.73;;
75167;SDS011;63748;48.088;11.476;2023-03-01T10:56:56;15.00;;;8.13;;
75167;SDS011;63748;48.088;11.476;2023-03-01T10:59:25;19.45;;;8.52;;
75167;SDS011;63748;48.088;11.476;2023-03-01T11:07:23;18.83;;;9.75;;
75167;SDS011;63748;48.088;11.476;2023-03-01T11:09:49;8.20;;;5.38;;
75167;SDS011;63748;48.088;11.476;2023-03-01T11:12:16;14.35;;;8.50;;
75167;SDS011;63748;48.088;11.476;2023-03-01T11:14:46;19.55;;;9.68;;
75167;SDS011;63748;48.088;11.476;2023-03-01T11:20:02;14.00;;;7.65;;
75167;SDS011;63748;48.088;11.476;2023-03-01T11:22:31;14.00;;;8.07;;
75167;SDS011;63748;48.088;11.476;2023-03-01T11:24:58;19.73;;;8.70;;
75167;SDS011;63748;48.088;11.476;2023-03-01T11:27:26;17.13;;;7.30;;
75167;SDS011;63748;48.088;11.476;2023-03-01T11:29:56;17.00;;;9.75;;
75167;SDS011;63748;48.088;11.476;2023-03-01T11:32:25;15.85;;;7.70;;
75167;SDS011;63748;48.088;11.476;2023-03-01T11:37:36;18.63;;;9.30;;
75167;SDS011;63748;48.088;11.476;2023-03-01T11:45:09;15.57;;;8.20;;
75167;SDS011;63748;48.088;11.476;2023-03-01T11:55:23;17.00;;;9.38;;
75167;SDS011;63748;48.088;11.476;2023-03-01T12:08:42;16.35;;;10.35;;
75167;SDS011;63748;48.088;11.476;2023-03-01T12:16:44;16.58;;;9.82;;
75167;SDS011;63748;48.088;11.476;2023-03-01T12:29:24;16.83;;;9.95;;
75167;SDS011;63748;48.088;11.476;2023-03-01T12:42:21;20.02;;;11.38;;
75167;SDS011;63748;48.088;11.476;2023-03-01T12:45:03;18.63;;;11.13;;
75167;SDS011;63748;48.088;11.476;2023-03-01T12:50:17;19.33;;;10.65;;
75167;SDS011;63748;48.088;11.476;2023-03-01T12:52:49;16.85;;;10.13;;
75167;SDS011;63748;48.088;11.476;2023-03-01T12:58:20;20.77;;;10.90;;
75167;SDS011;63748;48.088;11.476;2023-03-01T13:03:11;17.40;;;9.73;;
75167;SDS011;63748;48.088;11.476;2023-03-01T13:11:27;18.70;;;10.50;;
75167;SDS011;63748;48.088;11.476;2023-03-01T13:14:18;20.17;;;11.13;;
75167;SDS011;63748;48.088;11.476;2023-03-01T13:16:40;20.60;;;9.93;;
75167;SDS011;63748;48.088;11.476;2023-03-01T13:21:40;18.48;;;11.15;;
75167;SDS011;63748;48.088;11.476;2023-03-01T13:29:46;16.98;;;9.98;;
75167;SDS011;63748;48.088;11.476;2023-03-01T13:34:49;17.65;;;10.85;;
75167;SDS011;63748;48.088;11.476;2023-03-01T13:37:22;14.73;;;8.77;;
75167;SDS011;63748;48.088;11.476;2023-03-01T13:39:51;22.42;;;11.80;;
75167;SDS011;63748;48.088;11.476;2023-03-01T13:45:03;20.80;;;11.25;;
75167;SDS011;63748;48.088;11.476;2023-03-01T13:47:29;20.45;;;11.68;;
75167;SDS011;63748;48.088;11.476;2023-03-01T13:49:57;20.25;;;11.55;;
75167;SDS011;63748;48.088;11.476;2023-03-01T13:54:55;18.15;;;11.07;;
75167;SDS011;63748;48.088;11.476;2023-03-01T13:57:24;19.15;;;11.30;;
75167;SDS011;63748;48.088;11.476;2023-03-01T13:59:51;19.00;;;11.35;;
75167;SDS011;63748;48.088;11.476;2023-03-01T14:02:17;22.58;;;12.35;;
75167;SDS011;63748;48.088;11.476;2023-03-01T14:04:44;15.70;;;10.45;;
75167;SDS011;63748;48.088;11.476;2023-03-01T14:07:22;23.33;;;12.63;;
75167;SDS011;63748;48.088;11.476;2023-03-01T14:09:55;18.90;;;11.48;;
75167;SDS011;63748;48.088;11.476;2023-03-01T14:20:19;17.95;;;10.48;;
75167;SDS011;63748;48.088;11.476;2023-03-01T14:25:22;21.50;;;11.93;;
75167;SDS011;63748;48.088;11.476;2023-03-01T14:27:54;17.52;;;11.00;;
75167;SDS011;63748;48.088;11.476;2023-03-01T14:30:25;19.15;;;11.88;;
75167;SDS011;63748;48.088;11.476;2023-03-01T14:32:53;21.15;;;12.00;;
75167;SDS011;63748;48.088;11.476;2023-03-01T14:35:20;20.45;;;11.98;;
75167;SDS011;63748;48.088;11.476;2023-03-01T14:37:47;21.77;;;12.73;;
75167;SDS011;63748;48.088;11.476;2023-03-01T14:40:22;18.30;;;11.30;;
75167;SDS011;63748;48.088;11.476;2023-03-01T14:45:14;18.30;;;11.15;;
75167;SDS011;63748;48.088;11.476;2023-03-01T14:47:41;19.08;;;11.65;;
75167;SDS011;63748;48.088;11.476;2023-03-01T14:50:21;21.55;;;11.45;;
75167;SDS011;63748;48.088;11.476;2023-03-01T14:52:48;21.15;;;12.23;;
75167;SDS011;63748;48.088;11.476;2023-03-01T14:55:20;22.05;;;11.35;;
75167;SDS011;63748;48.088;11.476;2023-03-01T14:57:47;18.58;;;11.05;;
75167;SDS011;63748;48.088;11.476;2023-03-01T15:00:24;18.58;;;11.43;;
75167;SDS011;63748;48.088;11.476;2023-03-01T15:02:51;20.60;;;11.82;;
75167;SDS011;63748;48.088;11.476;2023-03-01T15:05:22;18.13;;;11.82;;
75167;SDS011;63748;48.088;11.476;2023-03-01T15:07:49;18.67;;;10.82;;
75167;SDS011;63748;48.088;11.476;2023-03-01T15:10:25;17.10;;;9.85;;
75167;SDS011;63748;48.088;11.476;2023-03-01T15:12:52;19.05;;;11.15;;
75167;SDS011;63748;48.088;11.476;2023-03-01T15:15:20;18.75;;;10.50;;
75167;SDS011;63748;48.088;11.476;2023-03-01T15:20:16;18.00;;;10.88;;
75167;SDS011;63748;48.088;11.476;2023-03-01T15:22:45;19.48;;;9.90;;
75167;SDS011;63748;48.088;11.476;2023-03-01T15:25:24;18.02;;;10.48;;
75167;SDS011;63748;48.088;11.476;2023-03-01T15:27:51;16.40;;;10.07;;
75167;SDS011;63748;48.088;11.476;2023-03-01T15:30:28;16.63;;;9.77;;
75167;SDS011;63748;48.088;11.476;2023-03-01T15:35:45;16.63;;;9.35;;
75167;SDS011;63748;48.088;11.476;2023-03-01T15:40:59;17.60;;;9.30;;
75167;SDS011;63748;48.088;11.476;2023-03-01T15:43:44;14.60;;;7.57;;
75167;SDS011;63748;48.088;11.476;2023-03-01T15:46:13;19.23;;;10.00;;
75167;SDS011;63748;48.088;11.476;2023-03-01T15:48:44;17.98;;;9.90;;
75167;SDS011;63748;48.088;11.476;2023-03-01T15:51:10;18.13;;;8.95;;
75167;SDS011;63748;48.088;11.476;2023-03-01T15:53:38;18.25;;;8.85;;
75167;SDS011;63748;48.088;11.476;2023-03-01T15:56:05;18.40;;;8.68;;
75167;SDS011;63748;48.088;11.476;2023-03-01T15:58:32;17.85;;;9.52;;
75167;SDS011;63748;48.088;11.476;2023-03-01T16:00:58;17.95;;;9.85;;
75167;SDS011;63748;48.088;11.476;2023-03-01T16:03:24;16.15;;;9.23;;
75167;SDS011;63748;48.088;11.476;2023-03-01T16:05:51;17.13;;;8.55;;
75167;SDS011;63748;48.088;11.476;2023-03-01T16:08:18;14.20;;;8.77;;
75167;SDS011;63748;48.088;11.476;2023-03-01T16:10:44;17.42;;;9.00;;
75167;SDS011;63748;48.088;11.476;2023-03-01T16:13:11;16.38;;;8.63;;
75167;SDS011;63748;48.088;11.476;2023-03-01T16:15:38;15.57;;;9.05;;
75167;SDS011;63748;48.088;11.476;2023-03-01T16:18:05;17.52;;;10.05;;
75167;SDS011;63748;48.088;11.476;2023-03-01T16:20:32;20.08;;;9.32;;
75167;SDS011;63748;48.088;11.476;2023-03-01T16:22:59;18.20;;;9.15;;
75167;SDS011;63748;48.088;11.476;2023-03-01T16:25:26;21.55;;;10.05;;
75167;SDS011;63748;48.088;11.476;2023-03-01T16:27:52;20.02;;;9.95;;
75167;SDS011;63748;48.088;11.476;2023-03-01T16:30:19;20.73;;;10.30;;
75167;SDS011;63748;48.088;11.476;2023-03-01T16:32:46;17.75;;;10.07;;
75167;SDS011;63748;48.088;11.476;2023-03-01T16:35:13;19.35;;;9.77;;
75167;SDS011;63748;48.088;11.476;2023-03-01T16:37:39;19.55;;;9.20;;
75167;SDS011;63748;48.088;11.476;2023-03-01T16:40:06;17.60;;;10.00;;
75167;SDS011;63748;48.088;11.476;2023-03-01T16:42:36;18.80;;;9.52;;
75167;SDS011;63748;48.088;11.476;2023-03-01T16:45:03;18.95;;;10.23;;
75167;SDS011;63748;48.088;11.476;2023-03-01T16:47:29;17.48;;;10.05;;